Beja, Russia
Current Conditions -  °F | °C
As of 4:30 PM on Thursday 18 Dec 2014 (Local Time) from UNAA Reporting Station
Scattered Clouds Scattered Clouds  
Wind Chill:   Ceiling: Unl
Heat Index: 16°   Visibility: 5mi
Dew Point:   Wind: 4mph
Humidity: 73%   Direction: NA
Pressure: 30.56"   Gusts: NA
Location:  53.05°N, 90.91°E
Report Text: UNAA 180930Z VRB02MPS 8000 SCT100 M09/M13 Q1035 NOSIG RMKQFE754 52190055
Loading
Personal Weather Stations






























Interactive Weather Map New forecast layout! Learn more

10-Day Weather Forecast

Advertisements
Track Severe Weather on mobile